SEAM/ATF METAR and TAF weather

Enter ICAO airport designator
Station Type Date Time Source
SEAM METAR 2020/04/01 21:00 UTC NOAA

SEAM 012100Z 18008KT 9999 SCT015 21/13 Q1024


Station Type Date Time Source
SEAM Decoded METAR 2020/04/01 21:00 UTC NOAA

Ambato / Chachoan, Ecuador (SEAM) 01-12S 078-34W
Apr 01, 2020 - 05:00 PM EDT / 2020.04.01 2100 UTC
Wind: from the S (180 degrees) at 9 MPH (8 KT):0
Visibility: greater than 7 mile(s):0
Sky conditions: partly cloudy
Temperature: 69 F (21 C)
Dew Point: 55 F (13 C)
Relative Humidity: 60%
Pressure (altimeter): 30.24 in. Hg (1024 hPa)
ob: SEAM 012100Z 18008KT 9999 SCT015 21/13 Q1024
cycle: 21

Station Type Date Time Source
SEAM TAF UTC NOAA

Error!

Example: see airport list